Time;durP1;ratioP1;P1;durP2;ratioP2;P2;SDS_P1;SDS_P2;PMS_P1;PMS_P2;Temp;Humidity;BMP_temperature;BMP_pressure;BME280_temperature;BME280_humidity;BME280_pressure;Samples;Min_cycle;Max_cycle;Signal;HPM_P1;HPM_P2
2023/09/02 00:00:43;;;;;;;3.45;1.92;;;;;;;14.44;100.00;99024.59;5058846;28;20022;-74
2023/09/02 00:03:09;;;;;;;9.23;3.00;;;;;;;14.42;100.00;99032.97;5069338;28;20490;-75
2023/09/02 00:05:34;;;;;;;5.28;1.80;;;;;;;14.33;100.00;99025.31;5090394;28;20035;-72
2023/09/02 00:07:59;;;;;;;5.28;1.90;;;;;;;14.39;100.00;99033.44;5073228;28;20035;-73
2023/09/02 00:10:25;;;;;;;3.33;1.70;;;;;;;14.37;100.00;99034.72;5072508;28;20035;-73
2023/09/02 00:12:50;;;;;;;3.88;2.00;;;;;;;14.24;100.00;99020.16;5074155;28;20457;-72
2023/09/02 00:15:16;;;;;;;4.43;1.80;;;;;;;14.38;100.00;99029.06;5060629;28;20920;-73
2023/09/02 00:17:41;;;;;;;3.15;1.95;;;;;;;14.21;100.00;99017.03;5055665;28;20021;-73
2023/09/02 00:20:08;;;;;;;6.57;2.08;;;;;;;14.22;100.00;99033.13;5072445;28;20050;-73
2023/09/02 00:22:33;;;;;;;4.78;1.77;;;;;;;14.27;100.00;99029.75;5071396;28;20074;-73
2023/09/02 00:24:59;;;;;;;2.55;1.60;;;;;;;14.27;100.00;99037.91;5052770;28;20020;-74
2023/09/02 00:27:25;;;;;;;5.45;1.67;;;;;;;14.19;100.00;99019.97;5060372;28;20032;-73
2023/09/02 00:29:50;;;;;;;3.97;1.70;;;;;;;14.22;100.00;99021.41;5063224;28;20029;-73
2023/09/02 00:32:15;;;;;;;4.90;1.88;;;;;;;14.24;100.00;99014.69;5065874;28;20020;-75
2023/09/02 00:34:41;;;;;;;2.60;1.88;;;;;;;14.46;100.00;99020.59;5071677;28;20032;-74
2023/09/02 00:37:07;;;;;;;4.13;2.00;;;;;;;14.39;100.00;99019.81;5060078;28;20059;-73
2023/09/02 00:39:32;;;;;;;2.55;1.70;;;;;;;14.39;100.00;99038.06;5069166;28;20024;-74
2023/09/02 00:42:00;;;;;;;5.30;1.88;;;;;;;14.33;100.00;99028.88;5072339;28;20020;-73
2023/09/02 00:44:25;;;;;;;5.53;2.00;;;;;;;14.30;100.00;99028.47;5067817;28;20033;-72
2023/09/02 00:46:51;;;;;;;4.75;1.70;;;;;;;14.22;100.00;99033.13;5057086;28;20029;-73
2023/09/02 00:49:17;;;;;;;3.90;1.85;;;;;;;14.16;100.00;99031.31;5061165;28;20035;-73
2023/09/02 00:51:43;;;;;;;3.30;2.17;;;;;;;14.12;100.00;99027.38;5074032;28;20036;-74
2023/09/02 00:54:08;;;;;;;5.80;2.00;;;;;;;14.06;100.00;99019.25;5072933;28;20021;-74
2023/09/02 00:56:35;;;;;;;6.30;2.50;;;;;;;14.09;100.00;99037.84;5055248;28;20048;-74
2023/09/02 00:59:03;;;;;;;6.47;2.30;;;;;;;13.90;100.00;99013.28;5054336;28;20024;-74
2023/09/02 01:01:31;;;;;;;5.43;2.67;;;;;;;14.12;100.00;99040.97;5061983;28;20039;-73
2023/09/02 01:03:57;;;;;;;8.95;2.80;;;;;;;14.11;100.00;99030.31;5072042;28;20028;-74
2023/09/02 01:06:22;;;;;;;6.13;2.75;;;;;;;14.18;100.00;99039.25;5071535;28;20085;-74
2023/09/02 01:08:48;;;;;;;4.28;2.25;;;;;;;14.13;100.00;99039.09;5062396;28;20091;-74
2023/09/02 01:11:13;;;;;;;3.58;1.90;;;;;;;14.15;100.00;99037.00;5076770;28;20534;-74
2023/09/02 01:13:39;;;;;;;4.22;1.92;;;;;;;14.08;100.00;99036.19;5061571;28;20021;-74
2023/09/02 01:16:04;;;;;;;4.05;1.80;;;;;;;14.01;100.00;99030.78;5060208;28;20029;-74
2023/09/02 01:18:30;;;;;;;2.78;1.50;;;;;;;14.04;100.00;99052.09;5063844;28;20086;-74
2023/09/02 01:21:14;;;;;;;5.43;1.77;;;;;;;14.03;100.00;99045.84;5070307;28;20474;-74
2023/09/02 01:24:01;;;;;;;7.78;2.00;;;;;;;14.02;100.00;99048.78;5065838;28;20029;-74
2023/09/02 01:27:01;;;;;;;3.75;1.77;;;;;;;13.97;100.00;99045.91;5069773;28;20111;-74
2023/09/02 01:29:32;;;;;;;6.10;1.95;;;;;;;13.97;100.00;99043.19;5055098;28;20501;-74
2023/09/02 01:31:58;;;;;;;4.35;2.38;;;;;;;13.87;100.00;99026.50;5066863;28;20024;-74
2023/09/02 01:34:28;;;;;;;7.20;2.83;;;;;;;13.99;100.00;99049.22;5062610;28;20056;-73
2023/09/02 01:36:54;;;;;;;6.90;2.85;;;;;;;13.93;100.00;99044.66;5062184;28;20032;-74
2023/09/02 01:39:22;;;;;;;5.65;2.63;;;;;;;13.93;100.00;99034.59;5062439;28;20184;-74
2023/09/02 01:41:50;;;;;;;5.35;2.65;;;;;;;13.93;100.00;99055.53;5066215;28;20017;-73
2023/09/02 01:44:17;;;;;;;4.83;2.30;;;;;;;13.79;100.00;99046.63;5059002;28;20108;-73
2023/09/02 01:46:42;;;;;;;7.57;2.05;;;;;;;13.75;100.00;99048.09;5065761;28;20037;-74
2023/09/02 01:49:09;;;;;;;6.55;2.40;;;;;;;13.71;100.00;99057.78;5061439;28;20062;-74
2023/09/02 01:51:35;;;;;;;7.32;2.47;;;;;;;13.63;100.00;99050.69;5069736;28;20029;-74
2023/09/02 01:54:00;;;;;;;8.23;2.80;;;;;;;13.70;100.00;99051.50;5070657;28;20024;-73
2023/09/02 01:56:27;;;;;;;3.17;2.15;;;;;;;13.75;100.00;99065.28;5055364;28;20415;-74
2023/09/02 01:58:53;;;;;;;4.15;2.30;;;;;;;13.72;100.00;99065.69;5060432;28;20025;-74
2023/09/02 02:01:18;;;;;;;5.22;2.17;;;;;;;13.60;100.00;99034.81;5050255;28;20028;-74
2023/09/02 02:04:01;;;;;;;5.35;2.72;;;;;;;13.76;100.00;99061.50;5061450;28;20039;-75
2023/09/02 02:06:30;;;;;;;4.22;2.70;;;;;;;13.72;100.00;99059.44;5064910;28;20078;-73
2023/09/02 02:09:04;;;;;;;3.47;2.20;;;;;;;13.73;100.00;99067.38;5050572;28;20028;-74
2023/09/02 02:11:34;;;;;;;4.50;2.38;;;;;;;13.68;100.00;99058.22;5058769;28;20975;-74
2023/09/02 02:14:01;;;;;;;3.45;2.10;;;;;;;13.67;100.00;99068.22;5064501;28;20470;-73
2023/09/02 02:16:27;;;;;;;6.55;1.95;;;;;;;13.75;100.00;99067.16;5065347;28;20058;-73
2023/09/02 02:18:52;;;;;;;3.85;2.10;;;;;;;13.70;100.00;99070.53;5069625;28;20114;-73
2023/09/02 02:21:17;;;;;;;5.45;1.88;;;;;;;13.74;100.00;99060.88;5074475;28;20027;-73
2023/09/02 02:23:43;;;;;;;2.90;1.83;;;;;;;13.66;100.00;99052.97;5077519;28;20028;-74
2023/09/02 02:26:08;;;;;;;5.00;1.55;;;;;;;13.65;100.00;99067.63;5072874;28;20031;-73
2023/09/02 02:28:34;;;;;;;3.38;1.83;;;;;;;13.53;100.00;99053.03;5075064;28;20032;-73
2023/09/02 02:30:59;;;;;;;4.47;1.80;;;;;;;13.47;100.00;99045.75;5066773;28;20109;-73
2023/09/02 02:33:25;;;;;;;3.50;2.10;;;;;;;13.67;100.00;99072.84;5081707;28;20018;-74
2023/09/02 02:35:50;;;;;;;3.67;2.22;;;;;;;13.71;100.00;99077.63;5082713;28;20482;-73
2023/09/02 02:38:16;;;;;;;5.70;2.30;;;;;;;13.62;100.00;99078.91;5076132;28;20028;-73
2023/09/02 02:40:41;;;;;;;2.58;1.58;;;;;;;13.51;100.00;99072.28;5070729;28;20032;-74
2023/09/02 02:43:07;;;;;;;3.67;1.80;;;;;;;13.37;100.00;99066.06;5075320;28;20397;-74
2023/09/02 02:45:32;;;;;;;3.60;2.40;;;;;;;13.43;100.00;99071.69;5070554;28;20082;-74
2023/09/02 02:47:58;;;;;;;5.47;2.53;;;;;;;13.32;100.00;99060.44;5087687;28;20013;-74
2023/09/02 02:50:23;;;;;;;5.80;1.88;;;;;;;13.45;100.00;99085.91;5082216;28;20024;-74
2023/09/02 02:52:50;;;;;;;4.97;2.08;;;;;;;13.43;100.00;99088.00;5086344;28;20098;-74
2023/09/02 02:55:15;;;;;;;6.68;2.00;;;;;;;13.43;100.00;99079.84;5073198;28;20009;-74
2023/09/02 02:57:42;;;;;;;6.82;2.35;;;;;;;13.45;100.00;99077.75;5074972;28;20604;-74
2023/09/02 03:00:08;;;;;;;2.90;2.00;;;;;;;13.50;100.00;99081.50;5079975;28;20086;-74
2023/09/02 03:02:34;;;;;;;5.68;2.40;;;;;;;13.48;100.00;99080.88;5085935;28;20436;-73
2023/09/02 03:04:59;;;;;;;6.53;2.05;;;;;;;13.47;100.00;99083.81;5079205;28;20021;-74
2023/09/02 03:07:25;;;;;;;6.75;2.50;;;;;;;13.36;100.00;99074.44;5080764;28;20075;-74
2023/09/02 03:09:50;;;;;;;7.95;2.83;;;;;;;13.37;100.00;99076.94;5074655;28;20028;-74
2023/09/02 03:12:15;;;;;;;5.35;2.97;;;;;;;13.47;100.00;99073.78;5063566;28;20109;-74
2023/09/02 03:14:41;;;;;;;5.78;2.67;;;;;;;13.55;100.00;99078.97;5071987;28;20024;-73
2023/09/02 03:17:07;;;;;;;5.65;2.40;;;;;;;13.55;100.00;99091.72;5071253;28;20060;-74
2023/09/02 03:19:32;;;;;;;7.85;2.75;;;;;;;13.39;100.00;99063.16;5061230;28;20107;-74
2023/09/02 03:21:57;;;;;;;3.50;2.13;;;;;;;13.50;100.00;99089.66;5063772;28;20027;-73
2023/09/02 03:24:22;;;;;;;3.67;2.20;;;;;;;13.35;100.00;99081.75;5067427;28;20103;-74
2023/09/02 03:26:48;;;;;;;3.88;2.08;;;;;;;13.42;100.00;99092.59;5069663;28;20029;-74
2023/09/02 03:29:14;;;;;;;7.18;2.00;;;;;;;13.42;100.00;99081.75;5071759;28;20087;-73
2023/09/02 03:31:39;;;;;;;4.20;1.90;;;;;;;13.23;100.00;99077.16;5065502;28;20056;-74
2023/09/02 03:34:04;;;;;;;4.53;1.83;;;;;;;13.21;100.00;99085.53;5066476;28;20104;-74
2023/09/02 03:36:30;;;;;;;8.13;2.35;;;;;;;13.17;100.00;99087.00;5072478;28;20035;-74
2023/09/02 03:38:55;;;;;;;4.68;2.40;;;;;;;13.15;100.00;99092.66;5074142;28;20390;-73
2023/09/02 03:41:23;;;;;;;5.18;2.88;;;;;;;13.06;100.00;99084.94;5066323;28;20028;-74
2023/09/02 03:43:48;;;;;;;3.38;2.42;;;;;;;13.09;100.00;99098.94;5074178;28;20112;-74
2023/09/02 03:46:13;;;;;;;3.53;2.25;;;;;;;13.01;100.00;99090.19;5068840;28;20067;-74
2023/09/02 03:48:39;;;;;;;3.65;2.60;;;;;;;12.95;100.00;99086.44;5058008;28;20403;-73
2023/09/02 03:51:05;;;;;;;3.38;2.40;;;;;;;12.96;100.00;99088.09;5059015;28;20068;-73
2023/09/02 03:53:31;;;;;;;7.65;2.78;;;;;;;13.00;100.00;99083.09;5063631;28;20107;-74
2023/09/02 03:55:58;;;;;;;2.65;2.05;;;;;;;12.88;100.00;99081.00;5074976;28;20021;-73
2023/09/02 03:58:24;;;;;;;5.15;2.20;;;;;;;12.82;100.00;99075.59;5062708;28;20031;-74
2023/09/02 04:00:49;;;;;;;2.63;1.98;;;;;;;12.99;100.00;99097.69;5075313;28;20029;-73
2023/09/02 04:03:15;;;;;;;5.30;2.00;;;;;;;12.84;100.00;99090.63;5073197;28;20058;-74
2023/09/02 04:05:41;;;;;;;3.03;1.85;;;;;;;12.80;100.00;99085.81;5061314;28;20534;-73
2023/09/02 04:08:07;;;;;;;5.30;1.88;;;;;;;12.87;100.00;99111.94;5077287;28;20500;-74
2023/09/02 04:10:33;;;;;;;3.63;2.15;;;;;;;12.76;100.00;99099.00;5060677;28;20044;-74
2023/09/02 04:12:58;;;;;;;3.95;2.22;;;;;;;12.72;100.00;99108.59;5064859;28;20032;-73
2023/09/02 04:15:23;;;;;;;7.03;2.00;;;;;;;12.87;100.00;99111.94;5066340;28;20482;-74
2023/09/02 04:17:49;;;;;;;6.30;2.33;;;;;;;12.88;100.00;99113.59;5054712;28;20031;-75
2023/09/02 04:20:15;;;;;;;10.57;2.10;;;;;;;12.78;100.00;99101.50;5064235;28;20435;-78
2023/09/02 04:22:40;;;;;;;8.80;2.83;;;;;;;12.79;100.00;99112.16;5072165;28;20420;-74
2023/09/02 04:25:10;;;;;;;7.15;2.22;;;;;;;12.81;100.00;99106.50;5096936;28;20051;-78
2023/09/02 04:27:35;;;;;;;5.13;2.58;;;;;;;12.87;100.00;99101.06;5080598;28;20029;-77
2023/09/02 04:30:00;;;;;;;11.25;2.78;;;;;;;12.84;100.00;99093.34;5084679;28;20039;-78
2023/09/02 04:32:26;;;;;;;5.95;3.17;;;;;;;12.93;100.00;99102.94;5073662;28;20032;-77
2023/09/02 04:34:51;;;;;;;8.50;3.78;;;;;;;12.88;100.00;99100.00;5076088;28;20051;-77
2023/09/02 04:37:16;;;;;;;9.90;4.28;;;;;;;12.95;100.00;99105.44;5062153;28;20024;-75
2023/09/02 04:39:41;;;;;;;6.10;3.75;;;;;;;13.01;100.00;99109.19;5057713;28;20063;-77
2023/09/02 04:42:07;;;;;;;7.80;3.88;;;;;;;13.11;100.00;99123.19;5066794;28;20016;-78
2023/09/02 04:44:32;;;;;;;5.18;3.10;;;;;;;13.22;100.00;99118.97;5066569;28;20028;-78
2023/09/02 04:46:57;;;;;;;9.75;3.22;;;;;;;13.21;100.00;99111.88;5072219;28;20110;-76
2023/09/02 04:49:23;;;;;;;7.47;3.40;;;;;;;13.40;100.00;99131.91;5071975;28;20111;-72
2023/09/02 04:51:48;;;;;;;6.18;3.40;;;;;;;13.55;100.00;99125.19;5070485;28;20035;-71
2023/09/02 04:54:14;;;;;;;18.08;3.78;;;;;;;13.53;100.00;99110.97;5070954;28;20024;-74
2023/09/02 04:56:39;;;;;;;7.32;2.97;;;;;;;13.67;100.00;99119.88;5063513;28;20531;-79
2023/09/02 04:59:05;;;;;;;7.78;3.00;;;;;;;13.78;100.00;99113.78;5053844;28;20025;-76
2023/09/02 05:01:30;;;;;;;10.45;2.78;;;;;;;13.95;100.00;99119.56;5071189;28;20104;-78
2023/09/02 05:03:55;;;;;;;9.63;3.05;;;;;;;14.06;100.00;99120.75;5098236;28;20030;-78
2023/09/02 05:06:21;;;;;;;6.97;3.17;;;;;;;14.12;100.00;99111.72;5065813;28;20103;-78
2023/09/02 05:08:46;;;;;;;12.77;2.47;;;;;;;14.21;100.00;99117.72;5067593;28;20033;-78
2023/09/02 05:11:11;;;;;;;4.93;2.00;;;;;;;14.30;100.00;99124.56;5070237;28;20123;-79
2023/09/02 05:13:37;;;;;;;7.32;2.25;;;;;;;14.22;100.00;99114.78;5057600;28;20093;-78
2023/09/02 05:16:02;;;;;;;6.93;2.22;;;;;;;14.32;100.00;99132.53;5061080;28;20036;-78
2023/09/02 05:18:27;;;;;;;3.45;2.13;;;;;;;14.40;100.00;99115.91;5068599;28;20025;-79
2023/09/02 05:20:56;;;;;;;3.53;1.73;;;;;;;14.43;100.00;99110.84;5071763;28;20028;-72
2023/09/02 05:23:22;;;;;;;3.40;2.00;;;;;;;14.41;100.00;99101.28;5063030;28;20031;-78
2023/09/02 05:25:53;;;;;;;2.75;1.50;;;;;;;14.44;100.00;99111.72;5056143;28;20418;-77
2023/09/02 05:28:18;;;;;;;2.67;1.90;;;;;;;14.48;100.00;99104.75;5071140;28;20029;-77
2023/09/02 05:30:44;;;;;;;3.58;1.80;;;;;;;14.56;100.00;99101.78;5078870;28;20034;-79
2023/09/02 05:33:09;;;;;;;4.13;1.80;;;;;;;14.68;100.00;99094.56;5067775;28;20025;-77
2023/09/02 05:35:35;;;;;;;4.70;1.50;;;;;;;14.95;100.00;99105.22;5079948;28;20024;-77
2023/09/02 05:38:02;;;;;;;6.13;1.45;;;;;;;15.32;100.00;99083.44;5080374;28;20031;-77
2023/09/02 05:40:27;;;;;;;5.07;1.65;;;;;;;17.20;100.00;99042.16;5071357;28;20055;-74
2023/09/02 05:42:52;;;;;;;5.20;1.30;;;;;;;19.53;100.00;99031.03;5073993;28;20498;-69
2023/09/02 05:45:18;;;;;;;7.93;1.13;;;;;;;20.90;100.00;99015.00;5086567;23;20479;-63
2023/09/02 05:47:44;;;;;;;7.68;1.95;;;;;;;22.23;100.00;99014.72;5039737;28;20028;-57
2023/09/02 05:50:09;;;;;;;7.70;2.60;;;;;;;23.16;100.00;99007.97;5039731;28;20075;-58
2023/09/02 05:52:34;;;;;;;9.45;1.73;;;;;;;23.49;100.00;99017.53;5044082;28;20468;-57
2023/09/02 05:55:00;;;;;;;7.47;1.48;;;;;;;23.37;100.00;99020.63;5052354;28;20123;-58
2023/09/02 05:57:25;;;;;;;11.02;1.63;;;;;;;23.69;100.00;99030.44;5048657;28;20143;-58
2023/09/02 05:59:51;;;;;;;7.45;1.42;;;;;;;25.72;100.00;99025.31;5057590;28;20028;-63
2023/09/02 06:02:16;;;;;;;6.50;1.30;;;;;;;26.41;100.00;99021.00;5053524;28;20021;-63
2023/09/02 06:04:41;;;;;;;7.10;1.17;;;;;;;26.19;100.00;99031.88;5056184;28;20456;-63
2023/09/02 06:07:07;;;;;;;3.53;1.05;;;;;;;25.94;100.00;99030.31;5057412;28;20024;-63
2023/09/02 06:09:32;;;;;;;3.47;1.30;;;;;;;25.84;100.00;99022.97;5057076;28;20111;-63
2023/09/02 06:11:58;;;;;;;9.25;1.40;;;;;;;26.11;100.00;99041.69;5044410;28;20013;-63
2023/09/02 06:14:23;;;;;;;3.80;1.17;;;;;;;26.78;100.00;99033.16;5057026;28;20070;-63
2023/09/02 06:16:50;;;;;;;4.90;1.17;;;;;;;26.84;100.00;99034.72;5052515;28;20119;-63
2023/09/02 06:19:15;;;;;;;5.45;1.35;;;;;;;27.25;100.00;99031.19;5053632;28;20495;-63
2023/09/02 06:21:42;;;;;;;4.25;1.10;;;;;;;27.00;100.00;99028.88;5054160;28;20028;-63
2023/09/02 06:24:07;;;;;;;4.93;1.08;;;;;;;27.18;100.00;99030.78;5054600;28;20055;-63
2023/09/02 06:26:33;;;;;;;2.80;0.90;;;;;;;28.10;100.00;99039.16;5052431;28;20115;-63
2023/09/02 06:28:58;;;;;;;4.97;1.02;;;;;;;28.74;86.31;99047.34;5054781;28;20052;-63
2023/09/02 06:31:24;;;;;;;3.78;0.95;;;;;;;29.35;78.45;99040.19;5052688;28;20196;-63
2023/09/02 06:33:49;;;;;;;2.83;1.10;;;;;;;30.57;71.95;99038.41;5058552;28;20028;-63
2023/09/02 06:36:19;;;;;;;3.65;1.15;;;;;;;30.71;68.61;99045.81;5053574;28;20025;-63
2023/09/02 06:38:45;;;;;;;2.97;0.90;;;;;;;29.61;73.89;99031.91;5045824;28;20029;-63
2023/09/02 06:41:13;;;;;;;1.70;1.00;;;;;;;29.53;77.54;99040.22;5052780;28;20078;-63
2023/09/02 06:43:39;;;;;;;2.00;0.90;;;;;;;30.09;72.31;99036.59;5053320;28;20028;-63
2023/09/02 06:46:15;;;;;;;2.97;0.90;;;;;;;31.03;71.60;99036.06;5046099;28;20037;-64
2023/09/02 06:48:41;;;;;;;2.13;0.85;;;;;;;32.06;66.67;99042.31;5049229;28;20040;-63
2023/09/02 06:51:07;;;;;;;5.57;0.80;;;;;;;32.41;61.89;99044.84;5049351;28;20495;-63
2023/09/02 06:53:32;;;;;;;1.30;0.85;;;;;;;30.29;66.52;99042.72;5046645;28;20028;-63
2023/09/02 06:55:57;;;;;;;3.35;0.93;;;;;;;30.85;68.42;99051.22;5051954;28;20079;-63
2023/09/02 06:58:23;;;;;;;1.30;0.90;;;;;;;31.96;64.64;99055.88;5048037;28;20512;-63
2023/09/02 07:00:48;;;;;;;1.27;0.73;;;;;;;32.53;61.27;99056.09;5049268;28;20345;-63
2023/09/02 07:03:14;;;;;;;2.58;0.93;;;;;;;33.07;59.95;99054.47;5047158;28;20387;-63
2023/09/02 07:05:39;;;;;;;2.25;0.82;;;;;;;33.76;57.31;99059.19;5043215;28;20031;-64
2023/09/02 07:08:05;;;;;;;1.42;0.73;;;;;;;33.91;55.70;99059.66;5058400;28;20373;-63
2023/09/02 07:10:30;;;;;;;1.63;0.85;;;;;;;33.60;56.54;99058.28;5053540;28;20027;-63
2023/09/02 07:12:56;;;;;;;3.88;1.00;;;;;;;35.33;53.43;99056.56;5057782;28;20033;-65
2023/09/02 07:15:21;;;;;;;1.35;0.80;;;;;;;35.71;51.20;99055.94;5045231;28;20028;-65
2023/09/02 07:17:47;;;;;;;4.35;0.93;;;;;;;35.29;51.85;99061.25;5053199;28;20090;-64
2023/09/02 07:20:13;;;;;;;1.98;0.90;;;;;;;34.74;50.85;99065.78;5041428;28;20033;-64
2023/09/02 07:22:38;;;;;;;1.40;1.00;;;;;;;35.37;50.04;99063.13;5054563;28;20023;-65
2023/09/02 07:25:06;;;;;;;4.32;1.20;;;;;;;34.50;51.08;99061.88;5053529;28;20467;-64
2023/09/02 07:27:32;;;;;;;3.50;1.07;;;;;;;33.93;52.08;99065.72;5057910;28;20032;-64
2023/09/02 07:30:01;;;;;;;4.75;1.00;;;;;;;33.94;53.91;99059.75;5040956;28;20120;-52
2023/09/02 07:32:26;;;;;;;;;;;;;;;33.94;54.81;99071.00;5054184;28;20424;-53
2023/09/02 07:34:54;;;;;;;3.87;1.07;;;;;;;36.69;48.44;99065.38;5049795;28;19952;-53
2023/09/02 07:37:19;;;;;;;6.22;1.17;;;;;;;37.49;45.37;99068.47;5042708;28;20304;-53
2023/09/02 07:39:44;;;;;;;1.65;0.90;;;;;;;40.09;41.69;99064.34;5045221;28;20063;-53
2023/09/02 07:42:10;;;;;;;4.13;1.10;;;;;;;42.23;38.41;99054.59;5057618;28;20372;-52
2023/09/02 07:44:35;;;;;;;0.88;0.73;;;;;;;41.90;37.46;99055.09;5040427;28;20037;-53
2023/09/02 07:47:00;;;;;;;2.30;0.98;;;;;;;40.67;38.95;99053.31;5038217;28;20520;-52
2023/09/02 07:49:26;;;;;;;2.53;0.90;;;;;;;41.43;37.40;99052.25;5051265;28;20028;-52
2023/09/02 07:51:51;;;;;;;2.67;1.25;;;;;;;40.95;38.14;99063.91;5053834;28;20020;-52
2023/09/02 07:54:17;;;;;;;5.85;0.75;;;;;;;41.38;37.63;99061.16;5049665;28;20223;-52
2023/09/02 07:56:43;;;;;;;2.38;0.90;;;;;;;38.52;40.05;99062.81;5054504;28;20028;-65
2023/09/02 07:59:08;;;;;;;2.10;1.10;;;;;;;35.49;44.72;99073.44;5047584;28;20036;-60
2023/09/02 08:01:33;;;;;;;2.70;1.10;;;;;;;35.19;46.23;99067.44;5047470;28;20107;-60
2023/09/02 08:03:59;;;;;;;1.50;0.90;;;;;;;34.85;47.80;99080.97;5046076;28;20046;-62
2023/09/02 08:06:24;;;;;;;2.42;0.82;;;;;;;35.71;47.00;99078.47;5052805;28;20428;-59
2023/09/02 08:08:54;;;;;;;3.53;0.77;;;;;;;36.88;45.58;99080.66;5052830;28;20044;-60
2023/09/02 08:11:19;;;;;;;3.05;1.00;;;;;;;37.05;44.95;99077.38;5055745;28;20100;-60
2023/09/02 08:13:45;;;;;;;2.38;1.00;;;;;;;37.28;44.19;99081.03;5037412;28;20598;-60
2023/09/02 08:16:10;;;;;;;2.50;1.00;;;;;;;35.56;46.89;99082.06;5046942;28;20024;-59
2023/09/02 08:18:36;;;;;;;1.58;0.90;;;;;;;35.90;47.46;99083.31;5051006;28;20038;-59
2023/09/02 08:21:10;;;;;;;1.70;0.70;;;;;;;37.04;45.42;99081.38;5050080;28;20031;-59
2023/09/02 08:23:38;;;;;;;1.50;0.68;;;;;;;35.60;47.36;99083.00;5037678;28;20392;-60
2023/09/02 08:26:15;;;;;;;3.22;1.10;;;;;;;35.58;47.87;99082.56;5051427;28;20030;-60
2023/09/02 08:28:41;;;;;;;2.05;0.65;;;;;;;35.44;48.23;99082.97;5044781;28;20033;-60
2023/09/02 08:31:11;;;;;;;4.05;1.38;;;;;;;34.06;51.62;99075.81;5040666;28;20931;-60
2023/09/02 08:33:36;;;;;;;1.80;1.05;;;;;;;34.53;51.30;99075.19;5051230;28;20031;-60
2023/09/02 08:36:02;;;;;;;2.53;0.90;;;;;;;34.53;49.63;99069.56;5053514;28;20491;-60
2023/09/02 08:38:27;;;;;;;3.58;1.08;;;;;;;34.28;50.13;99071.66;5054887;28;20035;-61
2023/09/02 08:40:54;;;;;;;1.77;0.73;;;;;;;35.69;51.08;99063.94;5056133;28;20075;-61
2023/09/02 08:43:20;;;;;;;1.42;0.90;;;;;;;35.90;48.61;99074.06;5043598;28;20437;-61
2023/09/02 08:45:49;;;;;;;1.88;0.70;;;;;;;36.22;48.13;99069.19;5050849;28;20020;-61
2023/09/02 08:48:22;;;;;;;3.22;0.80;;;;;;;38.86;44.51;99071.28;5063020;28;20345;-61
2023/09/02 08:50:49;;;;;;;2.55;0.82;;;;;;;39.75;41.98;99077.00;5044915;28;20024;-60
2023/09/02 08:53:16;;;;;;;3.08;1.20;;;;;;;37.61;43.51;99082.44;5049012;28;20044;-61
2023/09/02 08:55:44;;;;;;;1.95;0.90;;;;;;;37.98;45.03;99075.38;5051102;28;20459;-61
2023/09/02 08:58:09;;;;;;;2.08;1.02;;;;;;;38.61;45.07;99087.97;5071254;28;20116;-62
2023/09/02 09:00:36;;;;;;;1.02;0.63;;;;;;;41.43;40.93;99089.16;5045005;28;20032;-63
2023/09/02 09:03:03;;;;;;;3.42;0.80;;;;;;;41.94;38.36;99090.00;5033608;28;20033;-63
2023/09/02 09:05:31;;;;;;;1.20;0.70;;;;;;;43.32;37.47;99090.72;5046330;28;20035;-62
2023/09/02 09:07:57;;;;;;;;;;;;;;;42.41;37.40;99094.38;5059770;28;20021;-64
2023/09/02 09:10:23;;;;;;;1.30;0.75;;;;;;;41.80;37.99;99093.66;5050490;28;19913;-63
2023/09/02 09:12:51;;;;;;;1.30;0.70;;;;;;;43.15;38.34;99093.66;5046446;28;20028;-63
2023/09/02 09:15:18;;;;;;;2.60;1.13;;;;;;;41.30;38.72;99104.97;5047864;28;20033;-63
2023/09/02 09:17:44;;;;;;;1.45;0.75;;;;;;;42.27;38.62;99107.81;5052778;28;20021;-62
2023/09/02 09:20:11;;;;;;;1.83;0.75;;;;;;;42.86;38.00;99110.88;5047367;28;20380;-63
2023/09/02 09:22:40;;;;;;;1.15;0.82;;;;;;;42.84;37.71;99107.63;5046057;28;20016;-62
2023/09/02 09:25:06;;;;;;;3.13;0.98;;;;;;;43.41;36.80;99098.78;5050588;28;20136;-63
2023/09/02 09:27:32;;;;;;;0.87;0.60;;;;;;;43.68;35.61;99098.16;5044301;28;20037;-62
2023/09/02 09:29:58;;;;;;;1.48;0.75;;;;;;;42.88;36.45;99097.06;5043735;28;20041;-62
2023/09/02 09:32:23;;;;;;;2.05;0.88;;;;;;;43.04;35.96;99107.94;5038114;28;20017;-61
2023/09/02 09:34:49;;;;;;;2.13;1.08;;;;;;;42.44;33.69;99096.41;5047313;28;20033;-61
2023/09/02 09:37:15;;;;;;;3.75;1.10;;;;;;;42.28;35.26;99109.44;5042726;28;20021;-65
2023/09/02 09:39:43;;;;;;;2.22;1.08;;;;;;;43.28;32.71;99101.31;5054042;28;20111;-64
2023/09/02 09:42:11;;;;;;;1.50;0.90;;;;;;;42.33;34.03;99095.59;5053438;28;20112;-64
2023/09/02 09:44:50;;;;;;;;;;;;;;;42.52;34.06;99099.22;5053857;28;20149;-62
2023/09/02 09:47:16;;;;;;;0.90;0.70;;;;;;;41.72;34.59;99092.03;5048634;28;20022;-63
2023/09/02 09:49:41;;;;;;;2.38;0.95;;;;;;;40.41;36.93;99085.59;5044353;28;20029;-62
2023/09/02 09:52:09;;;;;;;2.35;1.08;;;;;;;40.80;37.07;99093.47;5044954;28;20492;-62
2023/09/02 09:54:35;;;;;;;;;;;;;;;41.34;35.88;99091.59;5049500;28;20032;-62
2023/09/02 09:57:01;;;;;;;3.97;0.80;;;;;;;40.76;35.21;99098.31;5047282;28;19969;-62
2023/09/02 09:59:27;;;;;;;4.53;0.90;;;;;;;40.68;35.83;99089.78;5045176;28;20055;-62
2023/09/02 10:01:52;;;;;;;2.95;1.15;;;;;;;42.33;34.95;99094.81;5041960;28;20029;-62
2023/09/02 10:04:18;;;;;;;2.38;0.75;;;;;;;42.35;34.53;99093.19;5041838;28;20066;-62
2023/09/02 10:06:45;;;;;;;1.08;0.65;;;;;;;42.16;35.71;99090.75;5052268;28;20056;-62
2023/09/02 10:09:11;;;;;;;2.08;0.98;;;;;;;43.22;32.98;99082.25;5045289;28;20028;-62
2023/09/02 10:11:36;;;;;;;1.73;0.80;;;;;;;42.94;32.77;99083.19;5037490;28;20545;-62
2023/09/02 10:14:03;;;;;;;1.55;1.05;;;;;;;41.83;34.98;99084.31;5049060;28;20062;-62
2023/09/02 10:16:30;;;;;;;1.52;0.82;;;;;;;41.79;34.15;99083.50;5040585;28;20313;-62
2023/09/02 10:18:58;;;;;;;4.55;2.30;;;;;;;40.93;35.58;99083.38;5046453;28;20433;-62
2023/09/02 10:21:24;;;;;;;6.22;3.67;;;;;;;39.96;36.97;99082.06;5044837;28;20037;-62
2023/09/02 10:23:54;;;;;;;3.92;2.83;;;;;;;41.50;35.12;99076.97;5047145;28;20082;-62
2023/09/02 10:26:45;;;;;;;1.50;1.00;;;;;;;40.37;36.19;99079.88;5031291;28;20465;-62
2023/09/02 10:29:12;;;;;;;6.43;0.95;;;;;;;42.42;34.81;99075.28;5045652;28;20464;-62
2023/09/02 10:31:42;;;;;;;2.22;1.00;;;;;;;41.10;36.09;99084.66;5038249;28;20019;-61
2023/09/02 10:34:16;;;;;;;2.13;0.90;;;;;;;42.94;34.18;99071.81;5045410;28;20155;-62
2023/09/02 10:36:47;;;;;;;2.85;2.17;;;;;;;43.03;33.38;99063.63;5049433;28;20135;-62
2023/09/02 10:39:22;;;;;;;2.55;0.90;;;;;;;43.53;31.88;99075.47;5046762;28;20035;-63
2023/09/02 10:41:47;;;;;;;2.70;0.80;;;;;;;43.33;31.60;99060.19;5045890;28;20043;-63
2023/09/02 10:44:14;;;;;;;2.65;1.08;;;;;;;42.33;33.06;99077.72;5050398;28;20448;-63
2023/09/02 10:46:40;;;;;;;2.25;0.98;;;;;;;42.88;33.18;99080.78;5051796;28;20039;-63
2023/09/02 10:49:06;;;;;;;2.80;0.98;;;;;;;42.36;32.94;99085.47;5069568;28;20020;-62
2023/09/02 10:51:31;;;;;;;2.05;0.70;;;;;;;42.54;33.52;99085.41;5042602;28;20025;-62
2023/09/02 10:53:58;;;;;;;1.75;0.70;;;;;;;43.83;32.18;99071.16;5052087;28;20029;-62
2023/09/02 10:56:30;;;;;;;1.40;0.80;;;;;;;44.13;32.17;99073.34;5055789;28;20025;-63
2023/09/02 10:58:57;;;;;;;1.67;0.70;;;;;;;43.48;32.07;99072.28;5056103;28;20021;-62
2023/09/02 11:01:24;;;;;;;1.15;0.70;;;;;;;43.62;31.63;99079.91;5058275;28;20158;-63
2023/09/02 11:03:53;;;;;;;4.00;1.25;;;;;;;43.21;31.58;99072.09;5054614;28;20047;-62
2023/09/02 11:06:18;;;;;;;7.97;2.00;;;;;;;42.83;32.07;99080.41;5053350;28;20028;-62
2023/09/02 11:08:48;;;;;;;9.63;1.25;;;;;;;43.84;30.63;99057.75;5061941;28;20043;-63
2023/09/02 11:11:14;;;;;;;2.53;1.00;;;;;;;43.37;31.87;99055.28;5047982;28;20175;-62
2023/09/02 11:14:07;;;;;;;1.70;0.77;;;;;;;44.57;30.75;99062.22;5043171;28;20115;-62
2023/09/02 11:16:38;;;;;;;1.85;0.90;;;;;;;43.55;31.49;99060.81;5051811;28;20052;-64
2023/09/02 11:19:08;;;;;;;3.47;1.00;;;;;;;45.96;30.04;99056.47;5048036;28;20016;-63
2023/09/02 11:21:39;;;;;;;1.48;0.80;;;;;;;45.39;29.44;99055.38;5052513;28;20020;-63
2023/09/02 11:24:18;;;;;;;2.35;0.75;;;;;;;46.11;28.75;99060.63;5053037;28;20032;-64
2023/09/02 11:26:53;;;;;;;1.38;0.63;;;;;;;44.97;28.53;99069.06;5054889;28;20024;-64